Sonic Adventure (DX): Time Rankings

Records: Times | Rings | Scores | Races | Bosses | Freestyle
Leaders: Times | Rings | Scores | Races | Bosses | Freestyle | Overall
Rank Player Percent Points Date
1 Gamepro011 99.4% 29 01-14-18
2 Sonicspeedruner 98.4% 89 01-14-18
3 Dashjump 94.6% 303 01-14-18
4 Jawzun 94.6% 305 01-14-18
5 DarkPolarNight 93.7% 357 01-14-18
6 drminus 91.5% 481 01-14-18
7 F-Man 91.4% 487 01-14-18
8 THC98 91.0% 509 01-14-18
9 ike6252 89.1% 620 01-14-18
10 Avento128bits 88.7% 642 01-14-18
11 francisco 88.4% 657 01-14-18
12 ethmar 87.9% 687 01-14-18
13 DarkspinesSonic 87.9% 688 01-14-18
14 Marth 87.8% 692 01-14-18
15 frankoredstrato 86.4% 772 01-14-18
16 TheRealShadnic 84.8% 864 01-14-18
17 chainchumper 84.6% 874 01-14-18
18 Paragod 83.7% 926 01-14-18
19 HyperSonic7701 83.5% 937 01-14-18
20 Calfd 83.1% 958 01-14-18
21 xXMegaManXx 80.5% 1110 01-14-18
22 InferSaime 80.3% 1117 01-14-18
23 Coolfansonic 80.2% 1127 01-14-18
24 Stefan 78.9% 1197 01-14-18
25 PfoSonic 78.5% 1222 01-14-18
26 bertin 76.7% 1322 01-14-18
27 yoshifan 76.2% 1353 01-14-18
28 Dave Cramer 74.6% 1442 01-14-18
29 RPGnutter 74.3% 1459 01-14-18
30 sonicam 72.7% 1550 01-14-18
31 Cybrax 72.5% 1566 01-14-18
32 Ring Rush 69.9% 1710 01-14-18
33 Nim 69.2% 1752 01-14-18
34 mike89 69.2% 1754 01-14-18
35 NintenDan 68.8% 1773 01-14-18
36 a_moustache 67.5% 1847 01-14-18
37 chaos shadow 65.6% 1955 01-14-18
38 SkyLights 65.3% 1972 01-14-18
39 Combo 64.0% 2048 01-14-18
40 SADXTryHard 61.7% 2178 01-14-18
41 P1 Pause 61.1% 2211 01-14-18
42 Groudon199 59.2% 2321 01-14-18
43 Game_Complete 58.5% 2361 01-14-18
44 Shadow Jacky 58.5% 2363 01-14-18
45 AxlThunder 58.4% 2367 01-14-18
46 Dekuboy 57.9% 2398 01-14-18
47 VMU Player Banned 57.5% 2419 01-14-18
48 Thorn 57.2% 2434 01-14-18
49 SB737 56.1% 2497 01-14-18
50 The Knuckles Chao 56.1% 2498 01-14-18
51 SadisticMystic 55.7% 2521 01-14-18
52 Chao_Fan 55.7% 2523 01-14-18
53 Parax 55.3% 2544 01-14-18
54 Mastakirby 55.2% 2550 01-14-18
55 KinkyCadence 54.5% 2587 01-14-18
56 LittleBigness 54.5% 2589 01-14-18
57 OmegaDJ 54.5% 2591 01-14-18
58 mauserman 54.4% 2594 01-14-18
59 Psyknux 54.2% 2607 01-14-18
60 Auriman1 54.0% 2620 01-14-18
61 magnum12 53.7% 2632 01-14-18
62 Niczur 53.4% 2649 01-14-18
63 Turbos 53.4% 2650 01-14-18
64 GerbilSoft 52.9% 2678 01-14-18
65 GreatStar 52.6% 2698 01-14-18
66 Webber3000 52.2% 2721 01-14-18
67 Hipertails12 51.2% 2779 01-14-18
68 N 51.0% 2787 01-14-18
69 James_Bertolli 49.1% 2898 01-14-18
70 Cream147 48.6% 2923 01-14-18
71 welldooder64 48.0% 2957 01-14-18
72 Skylace 47.9% 2962 01-14-18
73 Quartz 47.5% 2985 01-14-18
74 Omega Rafael Santos 47.5% 2990 01-14-18
75 Psymar 47.4% 2995 01-14-18
76 Diamond 47.1% 3008 01-14-18
77 SonicWinDX 46.5% 3043 01-14-18
78 teamblackarms 46.3% 3058 01-14-18
79 Andrea Ritsu 45.7% 3092 01-14-18
80 buddychaos0415 45.2% 3116 01-14-18
81 SilverSonic 44.8% 3143 01-14-18
82 SilvertheAlmighty 44.1% 3179 01-14-18
83 itsPersonnal 43.7% 3205 01-14-18
84 WeegeeZV 43.6% 3209 01-14-18
85 metanightmare22 43.5% 3215 01-14-18
86 lordmetalsonic 41.3% 3340 01-14-18
87 Arch 40.8% 3370 01-14-18
88 Termon 39.9% 3421 01-14-18
89 videogamemaster777 39.9% 3423 01-14-18
90 supersonicfan 39.5% 3442 01-14-18
91 Drakodan 38.9% 3476 01-14-18
92 LilZero 38.7% 3486 01-14-18
93 Kanimayo_Jp 38.7% 3490 01-14-18
94 paulie9990 38.6% 3496 01-14-18
95 supersonic465 38.5% 3502 01-14-18
96 FuzZerd 38.4% 3506 01-14-18
97 eggFL 37.8% 3539 01-14-18
98 BigAL49 37.6% 3554 01-14-18
99 JamminX42 37.3% 3567 01-14-18
100 Don 36.9% 3589 01-14-18
101 danieldude 36.9% 3590 01-14-18
102 Siavash Tazari 36.3% 3628 01-14-18
103 Fr3nZy 35.8% 3656 01-14-18
104 f0rever_zer0 35.3% 3684 01-14-18
105 Cod4Scopes 35.0% 3702 01-14-18
106 Cyan Ryan 34.6% 3724 01-14-18
107 LinksDarkArrows 34.2% 3743 01-14-18
108 Therio 34.0% 3759 01-14-18
109 Austinf 33.6% 3782 01-14-18
110 elecmouse101 33.3% 3795 01-14-18
111 Staf 33.1% 3807 01-14-18
112 MiStEr_ShAoLiN 32.8% 3825 01-14-18
113 Twilisailor 32.6% 3838 01-14-18
114 ModifiedMonkee 32.3% 3854 01-14-18
115 videogamer1014 32.2% 3857 01-14-18
116 BrokenArthritis 32.1% 3865 01-14-18
117 Xia 31.7% 3889 01-14-18
118 AC-Tygo 31.4% 3903 01-14-18
119 welshmoose05 31.3% 3912 01-14-18
120 OddCook 30.6% 3950 01-14-18
121 The Great Lord Mick 30.2% 3971 01-14-18
122 Aitamen 29.8% 3997 01-14-18
123 Mcshuggets 29.7% 3999 01-14-18
124 Maxinfamily 29.7% 4000 01-14-18
125 Matt_TY 29.4% 4018 01-14-18
126 dabestgamer 29.1% 4034 01-14-18
127 joecoolgames 29.0% 4040 01-14-18
128 SuperBlitzCraig 28.7% 4061 01-14-18
129 Irregular Zero 28.4% 4073 01-14-18
130 Shadowthegreat 27.8% 4112 01-14-18
131 superjupi 27.7% 4116 01-14-18
132 SuperSonic101 27.7% 4117 01-14-18
133 Rolken 27.3% 4137 01-14-18
134 thewaytodawnnn 27.1% 4152 01-14-18
135 sonamyfan666 26.8% 4165 01-14-18
136 Hunters13 26.7% 4173 01-14-18
137 koinu93 26.7% 4174 01-14-18
138 iarebored 26.6% 4180 01-14-18
138 Spinballwizard 26.6% 4180 01-14-18
140 SaviourDC 26.4% 4187 01-14-18
141 SonicKnuckles 26.4% 4192 01-14-18
142 EngiNerd 25.4% 4247 01-14-18
143 adf 25.3% 4253 01-14-18
144 Megaman EXE565 24.6% 4294 01-14-18
145 The T 24.3% 4311 01-14-18
146 Sonic Singularity 23.7% 4342 01-14-18
147 Platformer 23.4% 4361 01-14-18
148 SeaWolf 23.1% 4380 01-14-18
149 timpkmn89 23.0% 4381 01-14-18
150 Pokemonmaster888 23.0% 4382 01-14-18
151 Swift Hobo 22.5% 4413 01-14-18
152 Sondow 22.3% 4423 01-14-18
153 Rickyman48 21.9% 4447 01-14-18
154 KitsuneYamaro 21.7% 4458 01-14-18
155 FoxBoy 21.4% 4473 01-14-18
156 TFEC Headshot 20.8% 4506 01-14-18
157 Kogen Player Banned 20.8% 4508 01-14-18
158 Jerzia 20.6% 4522 01-14-18
159 Starlight Sable 20.0% 4555 01-14-18
160 HyperSonic64 19.6% 4575 01-14-18
161 IsisDazs 19.4% 4589 01-14-18
162 Powerjohn25 19.2% 4599 01-14-18
163 crazy1993 19.2% 4602 01-14-18
164 andres430 19.1% 4606 01-14-18
165 SonicU260 18.1% 4661 01-14-18
166 MPit08 17.6% 4688 01-14-18
167 SonicAD 17.6% 4693 01-14-18
168 Swinkly 17.4% 4700 01-14-18
169 sonicd5 17.2% 4716 01-14-18
170 iSonicKid2K 17.0% 4722 01-14-18
171 dShadow 17.0% 4724 01-14-18
172 Cutiefox 16.5% 4756 01-14-18
173 Chawkk 16.4% 4760 01-14-18
174 Monkeh 16.1% 4776 01-14-18
175 Miles9999 16.0% 4780 01-14-18
176 Crispian 15.8% 4795 01-14-18
177 DaDude 15.3% 4821 01-14-18
178 Drflash55 15.2% 4825 01-14-18
179 Bass 15.0% 4838 01-14-18
180 Cruizer 14.8% 4850 01-14-18
181 Badlex727 14.8% 4851 01-14-18
182 Destroyer121121 14.7% 4853 01-14-18
183 superiorsonic 14.6% 4864 01-14-18
184 neaolas 14.5% 4868 01-14-18
185 zapp 14.4% 4875 01-14-18
186 Yish 14.3% 4877 01-14-18
187 UninspiredUsername 14.2% 4886 01-14-18
188 gamefreak1292 13.8% 4906 01-14-18
189 Cooljay 13.7% 4913 01-14-18
190 Sora_yx 13.3% 4936 01-14-18
191 Chaos_Overlord 12.8% 4962 01-14-18
192 GarnetPrincess 12.6% 4977 01-14-18
193 Valfore 12.4% 4988 01-14-18
194 soniccoloursunleashed 12.0% 5010 01-14-18
195 Dage4Aquatic 12.0% 5011 01-14-18
196 ShinigamiMachine 11.7% 5025 01-14-18
197 booo95 11.4% 5043 01-14-18
198 Sonicsuperstar1 11.3% 5051 01-14-18
199 SirTobbii 11.0% 5069 01-14-18
200 sonicspeed 10.9% 5071 01-14-18
201 FocusSight64 10.8% 5077 01-14-18
201 Werey 10.8% 5077 01-14-18
203 Jua Rever 10.7% 5085 01-14-18
204 Mo Player Banned 10.6% 5087 01-14-18
205 Venick409 9.6% 5144 01-14-18
206 Sithwarrior26 9.6% 5147 01-14-18
207 nman36 9.6% 5148 01-14-18
208 ingx24 9.1% 5176 01-14-18
209 CyberShadow 9.0% 5183 01-14-18
210 dekki1234 8.9% 5185 01-14-18
211 Fozer 8.7% 5199 01-14-18
212 Colomb_30 8.6% 5201 01-14-18
213 Egor305 8.5% 5209 01-14-18
214 Regano1000 8.3% 5220 01-14-18
215 douglas 8.1% 5234 01-14-18
216 1stKirbyever 8.0% 5235 01-14-18
217 nuckrieg 7.9% 5244 01-14-18
218 TimTH 7.8% 5249 01-14-18
219 Brian_pso 7.7% 5256 01-14-18
220 wheatrich 7.5% 5264 01-14-18
221 Th4tN1nj4Turtl3 7.4% 5270 01-14-18
221 Zip 7.4% 5270 01-14-18
223 TakaRikka 7.3% 5275 01-14-18
224 niscool 7.1% 5287 01-14-18
225 Mariosonic15 7.0% 5295 01-14-18
226 ieatatsonic 6.7% 5311 01-14-18
226 Triseena 6.7% 5311 01-14-18
228 MStitomix 6.7% 5313 01-14-18
229 HermitHelmet 6.6% 5317 01-14-18
230 Artie 6.3% 5333 01-14-18
231 Got4n 6.3% 5335 01-14-18
232 Cort_pso 6.3% 5337 01-14-18
233 BlankTH 6.0% 5351 01-14-18
234 Jose_15 6.0% 5353 01-14-18
235 SuperSonicfan9595 5.7% 5367 01-14-18
236 Richied 5.6% 5372 01-14-18
237 Ace747 5.6% 5377 01-14-18
238 HHNNBBHHN 5.4% 5386 01-14-18
239 Aiko 5.2% 5395 01-14-18
240 Paixii 5.2% 5396 01-14-18
241 slade23 5.0% 5408 01-14-18
242 BallzeH 5.0% 5411 01-14-18
242 Mankster101 5.0% 5411 01-14-18
244 ArcticDragon 4.8% 5418 01-14-18
244 FSSRandomvids 4.8% 5418 01-14-18
246 BecauseWarAnvil 4.8% 5420 01-14-18
246 PsyBorg 4.8% 5420 01-14-18
248 Jamixesa 4.7% 5424 01-14-18
249 Nickson98 4.6% 5431 01-14-18
250 Crydio 4.5% 5437 01-14-18
251 TheUltraBlur 4.4% 5441 01-14-18
252 MarewBFN 4.2% 5452 01-14-18
253 tal39h 4.2% 5454 01-14-18
254 ALundstrom10 4.2% 5456 01-14-18
254 stanski 4.2% 5456 01-14-18
256 knuckles_sonic8 3.9% 5469 01-14-18
257 p0ker 3.9% 5470 01-14-18
258 Blue Infamy 3.9% 5472 01-14-18
259 ErrortheCucco 3.7% 5483 01-14-18
260 Rikum22 3.6% 5486 01-14-18
261 sonic1001 3.5% 5494 01-14-18
261 TheChaosEmeraIds 3.5% 5494 01-14-18
263 AJSIV 3.4% 5501 01-14-18
263 syco1098 3.4% 5501 01-14-18
265 Sonic the Hedgehod16 3.3% 5504 01-14-18
266 ASINISTERTACO 3.2% 5510 01-14-18
267 sonicfan9 3.1% 5515 01-14-18
268 MK 3.0% 5524 01-14-18
269 themachoman202 2.9% 5526 01-14-18
270 Fivavoa 2.8% 5535 01-14-18
271 Mr. Jones 2.7% 5537 01-14-18
272 BlackArmsShadow 2.7% 5539 01-14-18
272 djmat 2.7% 5539 01-14-18
274 arcfx1985 2.7% 5540 01-14-18
275 ptorflaxendrosis 2.7% 5542 01-14-18
276 Sonique Hedgehog 2.6% 5544 01-14-18
277 FlandreScarlet9999vr 2.5% 5548 01-14-18
278 Zeldocto 2.5% 5550 01-14-18
279 KaM Mark MaK 2.5% 5552 01-14-18
280 BeeAwwb 2.4% 5554 01-14-18
281 ShadouZaHejjihoggu 2.3% 5560 01-14-18
282 darkstarblaze 2.2% 5565 01-14-18
283 Sarger001 2.2% 5568 01-14-18
284 Sonic The Star 2.2% 5570 01-14-18
285 darkersupershadic 2.1% 5571 01-14-18
286 SpiritDragon1995 2.1% 5572 01-14-18
287 Grady219 2.1% 5576 01-14-18
288 sonic29887 2.0% 5577 01-14-18
289 BioShadow 2.0% 5579 01-14-18
290 shadowblast63 Player Banned 1.9% 5584 01-14-18
291 Jawaah 1.9% 5585 01-14-18
292 Antek 1.8% 5589 01-14-18
293 Klaus 1.8% 5591 01-14-18
294 SkyBon 1.7% 5594 01-14-18
295 Shanekilz 1.4% 5613 01-14-18
296 isaihtb11 1.4% 5615 01-14-18
297 OhNoes! 1.3% 5618 01-14-18
298 zaktu40 1.3% 5619 01-14-18
299 gaara1234 1.2% 5622 01-14-18
300 S-MS32X-S 1.2% 5624 01-14-18
301 MastaToken 1.1% 5629 01-14-18
302 Mister_Slick 1.0% 5634 01-14-18
303 Sonic06Fan 1.0% 5637 01-14-18
304 Rush Hero 1.0% 5638 01-14-18
305 SonicMega167 0.9% 5643 01-14-18
306 oTaiIilLsS 0.8% 5645 01-14-18
307 gamed00d 0.8% 5646 01-14-18
307 SilverK 0.8% 5646 01-14-18
309 Heroes_Hater 0.7% 5654 01-14-18
310 Redd 0.7% 5656 01-14-18
311 Burningskull123 0.5% 5662 01-14-18
312 Sonicontherun 0.4% 5673 01-14-18
313 antiwwe 0.2% 5679 01-14-18
314 Iwannabelink 0.2% 5681 01-14-18
315 Genuine Hedgehog 0.2% 5682 01-14-18
315 SonataSpinDash 0.2% 5682 01-14-18
317 dragondragon18 0.1% 5686 01-14-18
318 SonicK100 0.1% 5688 01-14-18
319 Tyrouble 0.0% 5693 01-14-18
320 LancexExWx 0.0% 5696 01-14-18
320 neji_hyuuga 0.0% 5696 01-14-18
320 Over 0.0% 5696 01-14-18
320 sdj6707 Player Banned 0.0% 5696 01-14-18
320 Tran Sonic Fan Player Banned 0.0% 5696 01-14-18

This page is using the New Data Table System. [FUTURE]

Game ID: 3 | Category ID: 1
Hits: 8,854 | Hits This Month: 23 | DB Calls: 24 | Mem Usage: 5.47 MB | Time: 0.22s | Printable

The Sonic Center v3.9
Copyright 2003-2011 by The Sonic Center Team.